Time;durP1;ratioP1;P1;durP2;ratioP2;P2;SDS_P1;SDS_P2;PMS_P1;PMS_P2;Temp;Humidity;BMP_temperature;BMP_pressure;BME280_temperature;BME280_humidity;BME280_pressure;Samples;Min_cycle;Max_cycle;Signal;HPM_P1;HPM_P2
2022/09/24 00:01:27;;;;;;;7.93;4.53;;;;;;;6.73;100.00;98023.72;5085860;28;20035;-76
2022/09/24 00:04:00;;;;;;;7.55;4.55;;;;;;;6.62;100.00;98015.28;5105929;28;20403;-77
2022/09/24 00:06:34;;;;;;;9.07;5.30;;;;;;;6.58;100.00;98018.13;5122365;27;20032;-76
2022/09/24 00:09:22;;;;;;;6.75;3.90;;;;;;;6.49;100.00;98004.25;5092930;28;20110;-76
2022/09/24 00:11:49;;;;;;;9.10;4.60;;;;;;;6.42;100.00;97999.25;5112964;28;20106;-75
2022/09/24 00:14:15;;;;;;;7.20;4.22;;;;;;;6.33;100.00;98002.25;5109416;28;20527;-76
2022/09/24 00:16:42;;;;;;;8.00;4.53;;;;;;;6.22;100.00;97999.09;5093888;28;20019;-76
2022/09/24 00:19:09;;;;;;;7.35;4.13;;;;;;;6.21;100.00;98008.03;5125351;27;20107;-76
2022/09/24 00:21:36;;;;;;;11.60;5.07;;;;;;;6.22;100.00;98017.69;5123958;27;20032;-76
2022/09/24 00:24:05;;;;;;;8.70;4.88;;;;;;;6.29;100.00;98027.19;5109106;28;20073;-76
2022/09/24 00:26:49;;;;;;;8.07;4.57;;;;;;;6.27;100.00;98024.59;5094510;28;20042;-76
2022/09/24 00:29:20;;;;;;;7.75;5.13;;;;;;;6.24;100.00;98024.72;5111655;28;20024;-76
2022/09/24 00:31:46;;;;;;;8.13;5.30;;;;;;;6.22;100.00;98030.97;5103983;28;20059;-76
2022/09/24 00:34:12;;;;;;;8.93;5.18;;;;;;;6.13;100.00;98021.56;5122119;27;20039;-76
2022/09/24 00:36:38;;;;;;;11.68;5.60;;;;;;;6.17;100.00;98032.94;5107553;28;20030;-76
2022/09/24 00:39:03;;;;;;;10.73;5.40;;;;;;;6.20;100.00;98054.97;5109682;28;20027;-76
2022/09/24 00:41:33;;;;;;;10.45;6.30;;;;;;;6.30;100.00;98058.16;5104131;28;20043;-76
2022/09/24 00:44:20;;;;;;;25.08;13.30;;;;;;;6.32;100.00;98061.59;5084332;28;20034;-77
2022/09/24 00:46:45;;;;;;;32.90;17.38;;;;;;;6.36;100.00;98058.78;5100098;28;20111;-76
2022/09/24 00:49:16;;;;;;;17.73;9.27;;;;;;;6.34;100.00;98051.78;5090173;28;20118;-76
2022/09/24 00:51:43;;;;;;;20.30;9.45;;;;;;;6.31;100.00;98046.56;5103555;28;20016;-76
2022/09/24 00:54:12;;;;;;;23.58;13.35;;;;;;;6.21;100.00;98034.59;5091557;28;20027;-76
2022/09/24 00:56:38;;;;;;;23.73;13.07;;;;;;;6.39;100.00;98055.16;5093808;28;20027;-76
2022/09/24 00:59:06;;;;;;;21.42;10.93;;;;;;;6.38;100.00;98058.72;5086550;28;20030;-76
2022/09/24 01:01:32;;;;;;;15.90;8.95;;;;;;;6.38;100.00;98056.94;5093182;28;20032;-76
2022/09/24 01:03:58;;;;;;;15.27;8.20;;;;;;;6.31;100.00;98035.94;5098041;28;20035;-76
2022/09/24 01:06:27;;;;;;;15.68;8.85;;;;;;;6.26;100.00;98032.59;5104127;28;20027;-77
2022/09/24 01:08:54;;;;;;;14.25;7.97;;;;;;;6.26;100.00;98029.94;5110189;28;20028;-76
2022/09/24 01:12:05;;;;;;;14.40;6.70;;;;;;;6.14;100.00;98017.13;5110045;28;20429;-76
2022/09/24 01:15:07;;;;;;;14.23;7.72;;;;;;;6.16;100.00;98032.06;5061197;28;20078;-76
2022/09/24 01:17:57;;;;;;;12.80;7.53;;;;;;;6.09;100.00;98035.03;5097152;27;20044;-75
2022/09/24 01:20:39;;;;;;;13.35;7.10;;;;;;;6.05;100.00;98028.09;5093111;28;20514;-75
2022/09/24 01:23:40;;;;;;;14.43;7.82;;;;;;;5.99;100.00;98024.75;5093242;28;20491;-76
2022/09/24 01:26:31;;;;;;;12.48;7.00;;;;;;;5.94;100.00;98029.34;5064292;28;20127;-76
2022/09/24 01:29:22;;;;;;;10.02;6.15;;;;;;;5.82;100.00;98016.47;5109160;28;20027;-75
2022/09/24 01:31:56;;;;;;;9.40;5.43;;;;;;;5.75;100.00;98009.63;5085265;28;20119;-75
2022/09/24 01:34:25;;;;;;;9.45;5.18;;;;;;;5.59;100.00;98008.47;5092579;28;20058;-76
2022/09/24 01:36:52;;;;;;;11.10;5.57;;;;;;;5.60;100.00;98026.09;5081397;28;20032;-76
2022/09/24 01:39:19;;;;;;;10.25;4.70;;;;;;;5.59;100.00;98024.38;5110330;27;20019;-75
2022/09/24 01:41:46;;;;;;;9.38;5.40;;;;;;;5.54;100.00;98022.81;5079343;28;20080;-76
2022/09/24 01:44:11;;;;;;;7.25;4.60;;;;;;;5.60;100.00;98044.66;5081086;28;20031;-76
2022/09/24 01:46:38;;;;;;;7.18;4.70;;;;;;;5.63;100.00;98049.88;5110164;28;20030;-76
2022/09/24 01:49:06;;;;;;;8.15;5.05;;;;;;;5.57;100.00;98047.44;5083836;28;20119;-76
2022/09/24 01:51:48;;;;;;;9.80;5.15;;;;;;;5.64;100.00;98058.69;5092121;28;20023;-76
2022/09/24 01:54:29;;;;;;;7.88;5.65;;;;;;;5.74;100.00;98068.97;5079241;28;20031;-76
2022/09/24 01:56:59;;;;;;;8.40;5.32;;;;;;;5.63;100.00;98051.69;5081934;28;20124;-77
2022/09/24 01:59:31;;;;;;;11.57;5.38;;;;;;;5.67;100.00;98072.75;5092220;28;20042;-76
2022/09/24 02:02:01;;;;;;;9.60;5.53;;;;;;;5.60;100.00;98057.94;5070033;28;20422;-76
2022/09/24 02:04:29;;;;;;;10.70;5.50;;;;;;;5.63;100.00;98068.44;5074728;28;20023;-77
2022/09/24 02:07:02;;;;;;;10.90;5.90;;;;;;;5.69;100.00;98084.16;5083378;28;20115;-76
2022/09/24 02:09:39;;;;;;;11.93;5.75;;;;;;;5.71;100.00;98081.47;5075698;28;20047;-77
2022/09/24 02:12:21;;;;;;;13.20;6.60;;;;;;;5.76;100.00;98096.31;5092241;28;20031;-77
2022/09/24 02:14:56;;;;;;;8.85;5.70;;;;;;;5.64;100.00;98071.97;5085686;28;20028;-77
2022/09/24 02:17:23;;;;;;;10.27;6.15;;;;;;;5.52;100.00;98065.28;5093038;28;20038;-78
2022/09/24 02:19:49;;;;;;;9.80;6.00;;;;;;;5.56;100.00;98081.97;5065890;28;20552;-77
2022/09/24 02:22:16;;;;;;;12.60;6.45;;;;;;;5.46;100.00;98069.03;5089267;28;20028;-77
2022/09/24 02:24:52;;;;;;;9.88;5.55;;;;;;;5.47;100.00;98083.16;5088110;28;20051;-77
2022/09/24 02:27:18;;;;;;;8.73;5.35;;;;;;;5.44;100.00;98076.16;5085016;28;20023;-77
2022/09/24 02:29:45;;;;;;;11.82;5.80;;;;;;;5.34;100.00;98074.75;5102467;28;20380;-77
2022/09/24 02:32:13;;;;;;;12.55;6.30;;;;;;;5.23;100.00;98068.06;5090726;28;20110;-77
2022/09/24 02:34:46;;;;;;;9.45;5.72;;;;;;;5.17;100.00;98078.88;5078541;28;20099;-77
2022/09/24 02:37:12;;;;;;;;;;;;;;;5.15;100.00;98081.56;5070137;28;20047;-75
2022/09/24 02:39:38;;;;;;;9.85;5.57;;;;;;;5.10;100.00;98079.97;5086799;28;19914;-75
2022/09/24 02:42:05;;;;;;;9.88;5.65;;;;;;;5.04;100.00;98077.50;5102798;28;20031;-75
2022/09/24 02:44:32;;;;;;;11.57;6.00;;;;;;;4.88;100.00;98071.81;5077701;28;20084;-76
2022/09/24 02:46:58;;;;;;;7.95;5.18;;;;;;;4.87;100.00;98086.84;5106226;28;20026;-77
2022/09/24 02:49:23;;;;;;;15.02;6.43;;;;;;;4.94;100.00;98103.44;5084399;28;20371;-76
2022/09/24 02:51:49;;;;;;;13.18;6.00;;;;;;;4.93;100.00;98097.25;5088558;28;20027;-77
2022/09/24 02:54:15;;;;;;;11.88;6.70;;;;;;;5.04;100.00;98114.63;5089650;28;20452;-77
2022/09/24 02:56:40;;;;;;;12.25;5.90;;;;;;;4.90;100.00;98094.69;5086993;28;20031;-77
2022/09/24 02:59:06;;;;;;;13.90;7.28;;;;;;;4.86;100.00;98102.81;5107936;28;20111;-77
2022/09/24 03:01:32;;;;;;;13.00;6.65;;;;;;;4.77;100.00;98101.28;5088192;28;20023;-77
2022/09/24 03:03:58;;;;;;;9.43;5.90;;;;;;;4.76;100.00;98104.00;5084620;28;20094;-77
2022/09/24 03:06:24;;;;;;;10.02;5.78;;;;;;;4.67;100.00;98099.84;5087619;28;20030;-77
2022/09/24 03:08:50;;;;;;;10.02;4.97;;;;;;;4.68;100.00;98103.34;5082069;28;20111;-77
2022/09/24 03:11:16;;;;;;;8.80;5.38;;;;;;;4.65;100.00;98096.34;5097860;28;20047;-77
2022/09/24 03:13:41;;;;;;;22.17;7.97;;;;;;;4.59;100.00;98104.47;5108993;28;20438;-77
2022/09/24 03:16:07;;;;;;;16.77;8.80;;;;;;;4.70;100.00;98126.25;5092200;28;20446;-76
2022/09/24 03:18:33;;;;;;;19.70;7.93;;;;;;;4.79;100.00;98139.22;5076544;28;20024;-76
2022/09/24 03:21:03;;;;;;;11.30;6.00;;;;;;;4.69;100.00;98118.31;5099438;28;20097;-77
2022/09/24 03:23:29;;;;;;;10.35;5.30;;;;;;;4.67;100.00;98126.34;5087362;27;20031;-77
2022/09/24 03:25:55;;;;;;;7.80;5.07;;;;;;;4.65;100.00;98125.50;5105751;27;20395;-77
2022/09/24 03:28:20;;;;;;;7.38;4.85;;;;;;;4.63;100.00;98134.41;5088027;28;20020;-76
2022/09/24 03:31:01;;;;;;;6.93;4.50;;;;;;;4.60;100.00;98143.31;5103980;27;20075;-77
2022/09/24 03:33:38;;;;;;;8.70;5.07;;;;;;;4.70;100.00;98158.03;5100339;27;20394;-75
2022/09/24 03:36:19;;;;;;;8.82;4.65;;;;;;;4.63;100.00;98150.31;5098192;27;20046;-76
2022/09/24 03:38:45;;;;;;;7.28;4.45;;;;;;;4.63;100.00;98153.81;5129464;27;20460;-75
2022/09/24 03:41:11;;;;;;;8.73;4.65;;;;;;;4.54;100.00;98146.13;5115357;27;20084;-75
2022/09/24 03:43:37;;;;;;;8.93;4.35;;;;;;;4.55;100.00;98157.59;5112564;27;20019;-75
2022/09/24 03:46:05;;;;;;;9.18;4.70;;;;;;;4.49;100.00;98148.03;5115540;27;20454;-75
2022/09/24 03:48:32;;;;;;;6.95;4.53;;;;;;;4.37;100.00;98127.19;5095069;27;20434;-75
2022/09/24 03:51:07;;;;;;;12.38;5.50;;;;;;;4.43;100.00;98147.38;5115611;27;20102;-76
2022/09/24 03:53:33;;;;;;;10.10;5.85;;;;;;;4.46;100.00;98165.81;5110454;27;20030;-76
2022/09/24 03:56:01;;;;;;;12.75;6.03;;;;;;;4.42;100.00;98151.78;5113958;27;20028;-76
2022/09/24 03:58:28;;;;;;;14.55;7.13;;;;;;;4.48;100.00;98178.09;5100573;27;20019;-76
2022/09/24 04:00:54;;;;;;;12.98;6.32;;;;;;;4.43;100.00;98176.50;5091550;28;20110;-76
2022/09/24 04:03:23;;;;;;;12.10;5.93;;;;;;;4.45;100.00;98178.19;5133566;27;20475;-75
2022/09/24 04:05:52;;;;;;;12.50;6.90;;;;;;;4.59;100.00;98201.63;5098165;27;20020;-75
2022/09/24 04:08:19;;;;;;;15.50;6.45;;;;;;;4.59;100.00;98197.19;5109699;28;20459;-76
2022/09/24 04:10:45;;;;;;;17.55;5.70;;;;;;;4.48;100.00;98180.75;5125779;27;20079;-76
2022/09/24 04:13:11;;;;;;;12.70;5.80;;;;;;;4.46;100.00;98173.75;5129983;27;20027;-74
2022/09/24 04:15:37;;;;;;;11.98;6.40;;;;;;;4.45;100.00;98187.91;5107805;27;20031;-76
2022/09/24 04:18:02;;;;;;;9.20;5.50;;;;;;;4.41;100.00;98200.34;5094236;28;20027;-75
2022/09/24 04:20:29;;;;;;;10.15;5.53;;;;;;;4.45;100.00;98209.09;5113736;27;20504;-76
2022/09/24 04:22:57;;;;;;;18.23;5.60;;;;;;;4.38;100.00;98196.00;5124938;27;20105;-75
2022/09/24 04:25:23;;;;;;;8.02;5.20;;;;;;;4.53;100.00;98217.69;5097666;27;20070;-77
2022/09/24 04:27:57;;;;;;;8.73;5.57;;;;;;;4.53;100.00;98218.56;5103067;27;20031;-76
2022/09/24 04:30:24;;;;;;;13.60;6.00;;;;;;;4.57;100.00;98209.63;5095082;27;20099;-75
2022/09/24 04:32:50;;;;;;;9.68;5.55;;;;;;;4.54;100.00;98212.38;5128006;27;20426;-76
2022/09/24 04:35:18;;;;;;;13.43;5.75;;;;;;;4.43;100.00;98185.28;5128593;27;20570;-76
2022/09/24 04:37:43;;;;;;;11.13;6.05;;;;;;;4.36;100.00;98194.31;5112304;27;20487;-75
2022/09/24 04:40:11;;;;;;;10.15;5.47;;;;;;;4.34;100.00;98190.81;5130646;27;20030;-74
2022/09/24 04:42:40;;;;;;;9.13;5.55;;;;;;;4.41;100.00;98203.00;5096846;27;20121;-75
2022/09/24 04:45:07;;;;;;;15.18;5.90;;;;;;;4.51;100.00;98214.22;5100621;27;20056;-77
2022/09/24 04:47:36;;;;;;;13.70;5.15;;;;;;;4.48;100.00;98196.63;5097453;27;20026;-76
2022/09/24 04:50:03;;;;;;;15.27;6.05;;;;;;;4.59;100.00;98215.75;5102593;27;20026;-76
2022/09/24 04:52:31;;;;;;;14.75;7.20;;;;;;;4.54;100.00;98207.06;5101072;27;20031;-76
2022/09/24 04:54:58;;;;;;;22.10;8.23;;;;;;;4.73;100.00;98232.16;5096492;27;20023;-76
2022/09/24 04:57:25;;;;;;;11.77;6.80;;;;;;;4.72;100.00;98218.91;5114510;27;20023;-76
2022/09/24 04:59:50;;;;;;;15.75;8.50;;;;;;;4.92;100.00;98241.28;5111852;27;20038;-75
2022/09/24 05:02:17;;;;;;;16.45;8.48;;;;;;;5.02;100.00;98238.38;5095683;27;20478;-77
2022/09/24 05:04:42;;;;;;;13.45;7.13;;;;;;;4.99;100.00;98230.50;5140262;27;20118;-77
2022/09/24 05:07:08;;;;;;;14.77;7.53;;;;;;;5.26;100.00;98257.09;5097509;27;20109;-77
2022/09/24 05:09:34;;;;;;;12.02;6.97;;;;;;;5.50;100.00;98266.13;5097031;27;20069;-78
2022/09/24 05:12:00;;;;;;;15.02;6.35;;;;;;;6.61;100.00;98343.13;5098717;27;20031;-87
2022/09/24 05:14:32;;;;;;;15.60;7.13;;;;;;;7.84;100.00;98318.25;5099094;27;20482;-87
2022/09/24 05:16:57;;;;;;;13.57;5.65;;;;;;;9.32;98.82;98302.25;5115388;27;20448;-83
2022/09/24 05:19:23;;;;;;;11.05;5.95;;;;;;;10.59;87.37;98211.44;5098264;27;20099;-77
2022/09/24 05:21:48;;;;;;;11.80;5.13;;;;;;;12.22;78.25;98164.00;5115744;27;20407;-84
2022/09/24 05:24:16;;;;;;;12.32;5.57;;;;;;;13.22;73.36;98111.38;5096323;27;20055;-84
2022/09/24 05:29:26;;;;;;;12.90;5.25;;;;;;;15.25;60.98;98009.41;5115299;27;20434;-85
2022/09/24 05:31:52;;;;;;;10.23;5.57;;;;;;;15.71;58.53;97963.75;5098821;27;20027;-86
2022/09/24 05:34:17;;;;;;;9.02;5.63;;;;;;;16.53;55.64;97950.06;5098387;27;20031;-85
2022/09/24 05:36:43;;;;;;;9.25;5.80;;;;;;;17.18;54.10;97938.50;5115410;27;20032;-85
2022/09/24 05:39:10;;;;;;;15.68;6.15;;;;;;;17.53;52.53;97903.13;5114225;27;20084;-85
2022/09/24 05:41:36;;;;;;;13.70;5.35;;;;;;;18.25;50.63;97895.97;5115774;27;20519;-85
2022/09/24 05:44:05;;;;;;;11.15;6.20;;;;;;;18.62;49.21;97872.78;5097630;27;20064;-86
2022/09/24 05:46:31;;;;;;;12.63;6.25;;;;;;;19.54;47.17;97860.72;5097902;28;20031;-85
2022/09/24 05:48:57;;;;;;;15.32;7.63;;;;;;;19.43;46.77;97836.47;5114091;28;20118;-86
2022/09/24 05:51:23;;;;;;;12.93;6.80;;;;;;;20.10;45.74;97836.38;5096998;28;20083;-86
2022/09/24 05:53:49;;;;;;;13.88;7.20;;;;;;;21.19;43.98;97827.47;5097073;28;20034;-87
2022/09/24 05:56:15;;;;;;;18.15;9.73;;;;;;;22.15;41.22;97803.78;5096901;28;20065;-87
2022/09/24 05:58:41;;;;;;;23.63;14.23;;;;;;;21.80;41.58;97797.56;5114063;28;20057;-85
2022/09/24 06:01:06;;;;;;;27.55;14.95;;;;;;;22.08;41.15;97794.56;5095976;28;20536;-86
2022/09/24 06:03:32;;;;;;;28.15;15.40;;;;;;;22.53;39.73;97782.53;5115127;28;20042;-87
2022/09/24 06:06:01;;;;;;;23.60;13.45;;;;;;;22.72;39.34;97776.84;5098275;28;20023;-88
2022/09/24 06:08:28;;;;;;;22.75;13.10;;;;;;;23.12;38.63;97767.91;5097170;28;20026;-79
2022/09/24 06:11:01;;;;;;;19.98;11.70;;;;;;;23.45;38.24;97764.22;5111169;28;20084;-79
2022/09/24 06:13:28;;;;;;;20.75;10.43;;;;;;;22.65;38.75;97738.47;5094630;28;20035;-78
2022/09/24 06:16:05;;;;;;;16.77;11.23;;;;;;;22.70;38.75;97748.91;5111273;28;20022;-79
2022/09/24 06:18:33;;;;;;;24.83;9.20;;;;;;;21.70;40.75;97756.81;5094061;28;20092;-78
2022/09/24 06:21:04;;;;;;;15.77;9.35;;;;;;;22.97;38.93;97765.00;5094878;28;20117;-78
2022/09/24 06:23:30;;;;;;;16.40;8.48;;;;;;;22.26;39.73;97750.03;5094230;28;20066;-78
2022/09/24 06:25:56;;;;;;;23.17;12.30;;;;;;;22.43;40.12;97746.34;5111803;28;20468;-78
2022/09/24 06:28:22;;;;;;;14.52;6.70;;;;;;;21.78;40.35;97737.78;5093851;28;20435;-78
2022/09/24 06:30:48;;;;;;;12.55;6.57;;;;;;;21.27;42.39;97754.06;5094866;28;20019;-78
2022/09/24 06:33:13;;;;;;;27.02;7.93;;;;;;;21.86;41.07;97756.91;5128421;28;20033;-80
2022/09/24 06:35:41;;;;;;;13.15;7.75;;;;;;;22.96;39.57;97760.53;5095134;27;20034;-79
2022/09/24 06:38:10;;;;;;;12.98;7.32;;;;;;;23.21;39.09;97754.13;5114569;27;20029;-78
2022/09/24 06:40:35;;;;;;;12.35;7.00;;;;;;;23.28;38.88;97745.25;5133429;27;20478;-79
2022/09/24 06:43:01;;;;;;;10.45;6.85;;;;;;;22.96;39.46;97746.91;5097441;27;20037;-78
2022/09/24 06:45:27;;;;;;;14.93;6.93;;;;;;;22.29;40.20;97741.53;5097465;27;20167;-78
2022/09/24 06:47:58;;;;;;;11.65;6.65;;;;;;;23.29;39.10;97753.25;5114277;27;20440;-78
2022/09/24 06:50:26;;;;;;;9.57;6.68;;;;;;;23.55;38.21;97736.75;5114614;27;20555;-78
2022/09/24 06:52:51;;;;;;;8.32;6.57;;;;;;;23.22;38.97;97736.69;5114248;27;20042;-78
2022/09/24 06:55:18;;;;;;;15.57;7.55;;;;;;;24.51;37.31;97754.88;5113781;27;20027;-78
2022/09/24 06:57:44;;;;;;;13.98;8.00;;;;;;;23.57;38.37;97734.69;5097219;27;20038;-79
2022/09/24 07:00:11;;;;;;;17.00;9.55;;;;;;;25.10;36.29;97761.59;5097232;27;20058;-80
2022/09/24 07:02:37;;;;;;;15.23;7.85;;;;;;;25.08;36.18;97736.28;5096907;27;20034;-79
2022/09/24 07:05:03;;;;;;;11.00;7.25;;;;;;;25.01;36.28;97742.69;5097036;27;20053;-79
2022/09/24 07:07:29;;;;;;;13.70;8.05;;;;;;;25.31;35.87;97752.75;5096817;27;20045;-81
2022/09/24 07:10:00;;;;;;;13.35;8.18;;;;;;;24.08;37.09;97717.91;5113802;27;20098;-81
2022/09/24 07:12:28;;;;;;;16.90;9.07;;;;;;;24.51;37.41;97730.25;5097216;27;20037;-81
2022/09/24 07:14:54;;;;;;;14.82;8.05;;;;;;;25.05;36.20;97735.78;5098093;27;20432;-81
2022/09/24 07:17:19;;;;;;;13.55;7.72;;;;;;;25.66;35.60;97737.56;5114762;27;20027;-85
2022/09/24 07:19:45;;;;;;;11.65;8.10;;;;;;;25.79;34.94;97733.19;5098597;27;20409;-84
2022/09/24 07:22:10;;;;;;;11.35;8.35;;;;;;;25.51;35.13;97712.88;5098912;27;20494;-84
2022/09/24 07:24:36;;;;;;;14.88;8.45;;;;;;;25.79;35.32;97711.25;5098255;27;20043;-82
2022/09/24 07:27:04;;;;;;;12.05;7.88;;;;;;;25.69;34.99;97705.19;5098248;27;20023;-82
2022/09/24 07:29:29;;;;;;;13.85;7.57;;;;;;;25.99;35.23;97716.19;5116123;27;20122;-83
2022/09/24 07:31:55;;;;;;;12.38;7.70;;;;;;;26.46;34.05;97708.47;5098333;27;20113;-82
2022/09/24 07:34:21;;;;;;;13.00;7.32;;;;;;;27.17;32.59;97702.19;5099230;27;20038;-83
2022/09/24 07:36:46;;;;;;;8.98;6.32;;;;;;;26.62;33.54;97697.28;5114844;27;20157;-80
2022/09/24 07:39:12;;;;;;;8.15;6.57;;;;;;;26.88;33.51;97705.03;5096588;27;20027;-80
2022/09/24 07:41:41;;;;;;;18.33;7.88;;;;;;;26.49;34.16;97688.06;5113191;27;20122;-79
2022/09/24 07:44:07;;;;;;;11.70;6.50;;;;;;;26.39;34.08;97675.44;5096997;27;20033;-78
2022/09/24 07:46:33;;;;;;;10.02;5.82;;;;;;;27.01;32.93;97672.22;5112652;27;20459;-79
2022/09/24 07:48:59;;;;;;;9.93;6.80;;;;;;;27.39;32.54;97695.66;5095814;27;20391;-80
2022/09/24 07:51:26;;;;;;;6.97;5.53;;;;;;;27.16;32.49;97673.03;5095588;27;20015;-81
2022/09/24 07:53:52;;;;;;;8.35;5.85;;;;;;;27.88;31.91;97689.31;5096154;27;20415;-81
2022/09/24 07:56:18;;;;;;;8.65;5.63;;;;;;;28.46;31.33;97688.88;5096264;27;20035;-80
2022/09/24 07:58:47;;;;;;;9.52;5.45;;;;;;;28.49;30.53;97682.97;5113239;27;20091;-81
2022/09/24 08:01:13;;;;;;;8.05;5.78;;;;;;;28.87;30.50;97679.75;5096248;27;20031;-81
2022/09/24 08:03:39;;;;;;;6.82;5.22;;;;;;;28.76;30.61;97666.59;5114169;27;20402;-81
2022/09/24 08:06:05;;;;;;;7.15;5.05;;;;;;;28.81;29.90;97664.06;5096635;27;20034;-81
2022/09/24 08:08:30;;;;;;;8.88;4.53;;;;;;;28.84;30.16;97666.41;5113488;27;20031;-80
2022/09/24 08:10:56;;;;;;;7.05;4.55;;;;;;;29.38;28.94;97667.19;5112890;27;20123;-80
2022/09/24 08:13:24;;;;;;;11.02;5.60;;;;;;;29.57;28.76;97662.75;5095961;27;20105;-82
2022/09/24 08:16:00;;;;;;;7.45;5.10;;;;;;;28.96;28.67;97642.72;5096338;27;20083;-80
2022/09/24 08:18:27;;;;;;;9.98;4.85;;;;;;;29.51;28.56;97661.69;5095572;27;20106;-82
2022/09/24 08:20:53;;;;;;;6.55;4.38;;;;;;;29.63;28.15;97638.97;5095780;27;20027;-81
2022/09/24 08:23:19;;;;;;;8.23;4.40;;;;;;;30.69;26.93;97651.53;5095911;27;20099;-81
2022/09/24 08:26:01;;;;;;;;;;;;;;;;;;;;;
2022/09/24 08:28:27;;;;;;;;;;;;;;;31.34;26.30;97637.38;5132015;27;20430;-80
2022/09/24 08:30:57;;;;;;;7.40;5.05;;;;;;;31.67;25.79;97642.66;5112828;27;20298;-81
2022/09/24 08:33:23;;;;;;;6.57;4.78;;;;;;;32.04;25.05;97632.56;5095749;27;20042;-81
2022/09/24 08:35:49;;;;;;;5.55;4.20;;;;;;;32.65;24.11;97640.84;5112541;27;20027;-80
2022/09/24 08:38:15;;;;;;;3.50;2.92;;;;;;;32.98;22.90;97627.38;5096406;27;20474;-81
2022/09/24 08:40:48;;;;;;;5.30;2.70;;;;;;;32.39;23.01;97611.53;5112561;27;20549;-81
2022/09/24 08:43:22;;;;;;;2.85;2.33;;;;;;;32.14;23.08;97599.66;5095812;27;20471;-81
2022/09/24 08:48:50;;;;;;;2.05;1.85;;;;;;;32.66;21.58;97599.06;5115612;27;20049;-82
2022/09/24 08:51:18;;;;;;;2.75;1.83;;;;;;;31.42;22.33;97569.88;5095591;27;20485;-82
2022/09/24 08:53:53;;;;;;;2.08;1.83;;;;;;;32.18;22.27;97578.72;5112467;27;20076;-83
2022/09/24 08:56:24;;;;;;;2.20;2.00;;;;;;;32.28;21.56;97575.41;5107734;27;20031;-82
2022/09/24 08:58:58;;;;;;;4.65;2.30;;;;;;;31.98;21.76;97575.31;5094921;28;20408;-81
2022/09/24 09:02:06;;;;;;;8.18;2.13;;;;;;;32.61;21.35;97590.56;5095559;27;20035;-80
2022/09/24 09:04:34;;;;;;;4.80;1.95;;;;;;;32.01;21.95;97580.38;5092208;27;20043;-82
2022/09/24 09:07:15;;;;;;;6.50;2.05;;;;;;;31.76;21.62;97560.22;5111966;27;20740;-82
2022/09/24 09:09:55;;;;;;;4.57;3.08;;;;;;;32.19;21.81;97572.13;5129255;27;20027;-80
2022/09/24 09:12:24;;;;;;;8.48;3.47;;;;;;;32.94;21.66;97594.84;5090373;27;20038;-81
2022/09/24 09:14:54;;;;;;;2.90;2.15;;;;;;;33.14;20.86;97567.66;5113987;27;20413;-81
2022/09/24 09:17:44;;;;;;;3.28;2.20;;;;;;;33.46;20.97;97571.00;5132172;27;20027;-81
2022/09/24 09:20:23;;;;;;;2.47;2.05;;;;;;;33.32;20.36;97564.00;5113339;27;20474;-81
2022/09/24 09:22:50;;;;;;;2.28;2.08;;;;;;;32.17;21.57;97558.53;5131318;27;20050;-82
2022/09/24 09:25:20;;;;;;;7.50;2.00;;;;;;;32.63;21.39;97565.41;5096666;27;20043;-82
2022/09/24 09:27:52;;;;;;;2.53;2.00;;;;;;;32.62;20.75;97549.84;5113997;27;20055;-81
2022/09/24 09:30:20;;;;;;;5.55;3.47;;;;;;;31.27;22.56;97542.56;5114129;27;20394;-82
2022/09/24 09:32:59;;;;;;;3.20;2.22;;;;;;;31.72;21.72;97561.75;5097083;27;20031;-81
2022/09/24 09:35:50;;;;;;;3.50;2.35;;;;;;;31.73;21.33;97546.84;5110379;28;20066;-81
2022/09/24 09:39:00;;;;;;;4.53;3.35;;;;;;;32.57;21.27;97567.19;5096788;27;20023;-81
2022/09/24 09:41:49;;;;;;;7.10;3.35;;;;;;;33.45;20.11;97564.59;5097958;27;20071;-81
2022/09/24 09:44:25;;;;;;;3.47;2.00;;;;;;;33.46;20.27;97555.19;5096322;28;20023;-81
2022/09/24 09:47:11;;;;;;;3.15;1.70;;;;;;;34.08;19.86;97563.91;5091551;28;20035;-80
2022/09/24 09:49:38;;;;;;;3.97;2.10;;;;;;;34.03;19.79;97558.22;5109283;27;20391;-81
2022/09/24 09:52:13;;;;;;;2.90;2.15;;;;;;;33.64;19.68;97541.25;5096655;28;20086;-80
2022/09/24 09:54:40;;;;;;;9.00;2.22;;;;;;;34.18;19.59;97553.88;5096945;27;20045;-81
2022/09/24 09:57:12;;;;;;;2.08;1.80;;;;;;;33.52;19.75;97522.88;5113780;28;20030;-80
2022/09/24 09:59:37;;;;;;;4.10;2.40;;;;;;;33.63;19.61;97519.25;5096364;28;20055;-80
2022/09/24 10:02:09;;;;;;;2.90;2.55;;;;;;;33.72;19.58;97518.66;5096711;28;20561;-80
2022/09/24 10:04:38;;;;;;;3.72;3.03;;;;;;;34.27;18.92;97524.63;5096458;28;20023;-80
2022/09/24 10:07:07;;;;;;;6.18;4.25;;;;;;;33.24;19.72;97507.78;5096553;28;20031;-80
2022/09/24 10:09:33;;;;;;;8.90;5.30;;;;;;;33.57;19.42;97496.06;5130819;27;20027;-79
2022/09/24 10:12:14;;;;;;;3.70;2.85;;;;;;;33.58;19.08;97497.78;5116905;27;20051;-81
2022/09/24 10:14:40;;;;;;;3.13;2.45;;;;;;;33.54;19.32;97490.16;5100810;27;20030;-80
2022/09/24 10:17:05;;;;;;;5.75;2.78;;;;;;;34.23;18.83;97497.59;5117555;27;20103;-78
2022/09/24 10:19:34;;;;;;;3.75;2.10;;;;;;;33.99;18.87;97482.91;5100114;27;20114;-80
2022/09/24 10:22:10;;;;;;;2.75;2.17;;;;;;;34.27;18.29;97479.38;5100426;27;20019;-81
2022/09/24 10:24:36;;;;;;;8.57;4.10;;;;;;;34.14;18.94;97466.59;5100367;27;20043;-81
2022/09/24 10:27:10;;;;;;;20.85;16.13;;;;;;;34.09;18.85;97465.59;5100338;27;20110;-80
2022/09/24 10:32:22;;;;;;;5.57;2.92;;;;;;;32.59;19.89;97467.19;5120233;27;20409;-79
2022/09/24 10:34:59;;;;;;;1.80;1.70;;;;;;;33.09;19.07;97462.16;5117317;27;20030;-80
2022/09/24 10:37:25;;;;;;;3.03;2.22;;;;;;;33.68;18.76;97475.84;5116921;27;20529;-80
2022/09/24 10:39:57;;;;;;;3.25;2.78;;;;;;;34.12;18.76;97482.66;5100183;27;20030;-81
2022/09/24 10:42:25;;;;;;;2.10;1.90;;;;;;;33.83;18.88;97463.38;5114139;27;20050;-80
2022/09/24 10:44:52;;;;;;;4.95;2.30;;;;;;;34.25;19.20;97478.75;5117761;27;20406;-81
2022/09/24 10:47:49;;;;;;;3.35;2.42;;;;;;;34.26;19.06;97472.09;5100131;27;20494;-81
2022/09/24 10:50:23;;;;;;;12.50;8.38;;;;;;;33.57;19.01;97457.22;5099755;27;20026;-81
2022/09/24 10:52:53;;;;;;;3.35;2.70;;;;;;;34.32;18.97;97476.69;5135385;27;20133;-80
2022/09/24 10:55:33;;;;;;;3.20;2.53;;;;;;;35.04;17.90;97465.81;5115746;27;20060;-81
2022/09/24 10:58:18;;;;;;;5.82;3.88;;;;;;;35.84;17.78;97483.81;5116521;27;20023;-80
2022/09/24 11:01:05;;;;;;;2.15;2.00;;;;;;;35.53;17.33;97462.19;5117103;27;20027;-80
2022/09/24 11:04:06;;;;;;;2.33;2.00;;;;;;;35.04;17.57;97463.03;5098198;27;20456;-80
2022/09/24 11:07:13;;;;;;;3.42;2.67;;;;;;;34.55;17.89;97448.78;5083070;27;20035;-81
2022/09/24 11:09:46;;;;;;;3.50;2.28;;;;;;;35.14;17.83;97474.34;5116854;27;20027;-80
2022/09/24 11:12:48;;;;;;;3.55;2.70;;;;;;;35.63;17.52;97479.06;5099753;27;20059;-80
2022/09/24 11:15:23;;;;;;;2.70;2.17;;;;;;;36.54;17.25;97497.06;5114574;27;20120;-81
2022/09/24 11:18:04;;;;;;;6.43;2.40;;;;;;;36.92;16.87;97494.13;5116167;27;20510;-79
2022/09/24 11:20:38;;;;;;;3.22;2.00;;;;;;;36.46;16.88;97477.97;5132275;27;20019;-81
2022/09/24 11:23:28;;;;;;;5.07;2.45;;;;;;;35.57;17.87;97480.09;5115529;27;20581;-80
2022/09/24 11:26:12;;;;;;;5.00;3.10;;;;;;;35.55;17.93;97470.28;5116171;27;20175;-80
2022/09/24 11:28:56;;;;;;;5.05;2.55;;;;;;;35.60;17.59;97467.59;5116151;27;20022;-80
2022/09/24 11:31:25;;;;;;;2.40;2.20;;;;;;;35.49;17.64;97452.66;5099438;27;20030;-81
2022/09/24 11:34:26;;;;;;;3.33;2.35;;;;;;;35.33;17.86;97440.47;5110884;27;20606;-81
2022/09/24 11:36:54;;;;;;;12.70;2.80;;;;;;;35.20;17.79;97439.94;5094239;27;20404;-81
2022/09/24 11:39:43;;;;;;;2.40;2.20;;;;;;;34.68;18.51;97440.16;5115861;27;20501;-80
2022/09/24 11:42:21;;;;;;;2.75;2.35;;;;;;;34.02;18.56;97426.88;5099060;27;20031;-80
2022/09/24 11:44:59;;;;;;;3.35;2.08;;;;;;;33.98;18.83;97435.94;5099188;27;20019;-80
2022/09/24 11:47:43;;;;;;;2.20;2.00;;;;;;;34.49;18.64;97438.66;5115809;27;20039;-81
2022/09/24 11:51:13;;;;;;;3.05;2.08;;;;;;;33.71;19.25;97416.22;5129756;27;20114;-81
2022/09/24 11:53:38;;;;;;;2.63;2.13;;;;;;;33.03;19.77;97415.97;5031053;28;20029;-81
2022/09/24 11:56:19;;;;;;;2.90;2.55;;;;;;;33.17;19.41;97411.88;5030945;28;20029;-81
2022/09/24 11:59:15;;;;;;;2.00;1.80;;;;;;;33.33;19.43;97407.53;5053721;27;20166;-81